Main page
METAR-TAF:

METAR-TAF

Airports :

Zagreb, Croatia

Zagreb Airport

latitude: 45-44N, longitude: 016-04E, elevation: 106 m

Current weather observation

The report was made 23 minutes ago, at 02:30 UTC
Calm wind
Temperature 11°C
Humidity 82%
Pressure 1022 hPa
Visibility 10 km or more
no clouds below 1500 m and no cumulonimbus

METAR: LDZA 280230Z 00000KT CAVOK 11/08 Q1022 NOSIG

Time: 04:53 (02:53 UTC)

Forecast

The report was made 3 hours and 28 minutes ago, at 23:25 UTC
Forecast valid from 28 at 00 UTC to 28 at 24 UTC
Wind 2 kt from variable directions
Visibility 10 km or more
no clouds below 1500 m and no cumulonimbus
Becoming
from 28 at 06 UTC to 28 at 08 UTC
Wind 8 kt from the Northeast

TAF: LDZA 272325Z 2800/2824 VRB02KT CAVOK TX27/2813Z TN12/2803Z BECMG 2806/2808 05008KT

Weather observations and forecasts of more than 4000 airports (METAR and TAF reports).

The available stations are represented by yellow and red dots on the map.

Hover mouse over dot to see the name of the station.

Then click to see weather observations and forecasts.

To change the map : click on the green buttons with a black cross to zoom in, on the green button with a dash to zoom out, or on the green arrows for adjacent maps.


METAR-TAF: